createdAt,value
2023-04-03T00:01:58.561Z,99489.03
2023-04-03T00:04:41.012Z,99490.92
2023-04-03T00:07:13.676Z,99489.12
2023-04-03T00:09:45.634Z,99500.40
2023-04-03T00:12:17.714Z,99501.34
2023-04-03T00:14:50.218Z,99499.54
2023-04-03T00:17:22.184Z,99494.38
2023-04-03T00:19:54.193Z,99502.26
2023-04-03T00:22:27.828Z,99500.58
2023-04-03T00:24:59.737Z,99494.58
2023-04-03T00:27:32.841Z,99496.27
2023-04-03T00:30:05.739Z,99502.46
2023-04-03T00:32:37.932Z,99497.30
2023-04-03T00:35:10.800Z,99495.49
2023-04-03T00:37:43.977Z,99502.55
2023-04-03T00:40:17.919Z,99498.13
2023-04-03T00:42:52.250Z,99498.13
2023-04-03T00:45:32.783Z,99489.33
2023-04-03T00:48:08.154Z,99491.01
2023-04-03T00:50:44.096Z,99491.83
2023-04-03T00:53:21.680Z,99488.38
2023-04-03T00:55:57.809Z,99492.69
2023-04-03T00:58:32.743Z,99501.52
2023-04-03T01:01:07.768Z,99492.13
2023-04-03T01:03:39.913Z,99496.44
2023-04-03T01:06:12.154Z,99498.41
2023-04-03T01:08:45.118Z,99495.88
2023-04-03T01:11:17.247Z,99499.36
2023-04-03T01:13:50.546Z,99493.25
2023-04-03T01:16:22.909Z,99498.50
2023-04-03T01:18:55.158Z,99500.48
2023-04-03T01:21:44.713Z,99504.10
2023-04-03T01:24:22.746Z,99507.67
2023-04-03T01:26:54.841Z,99493.03
2023-04-03T01:29:26.998Z,99495.66
2023-04-03T01:32:01.982Z,99493.23
2023-04-03T01:34:34.988Z,99495.09
2023-04-03T01:37:07.453Z,99498.92
2023-04-03T01:39:39.493Z,99504.46
2023-04-03T01:42:12.578Z,99496.84
2023-04-03T01:44:46.967Z,99501.44
2023-04-03T01:47:18.996Z,99511.17
2023-04-03T01:49:51.169Z,99508.63
2023-04-03T01:52:23.295Z,99512.36
2023-04-03T01:54:56.096Z,99512.56
2023-04-03T01:57:28.165Z,99512.65
2023-04-03T02:00:00.495Z,99509.17
2023-04-03T02:02:33.337Z,99508.31
2023-04-03T02:05:05.597Z,99504.17
2023-04-03T02:07:37.676Z,99506.80
2023-04-03T02:10:09.889Z,99506.99
2023-04-03T02:12:42.250Z,99505.28
2023-04-03T02:15:14.465Z,99503.59
2023-04-03T02:17:46.593Z,99507.08
2023-04-03T02:20:19.207Z,99501.91
2023-04-03T02:22:51.446Z,99508.19
2023-04-03T02:25:23.531Z,99501.33
2023-04-03T02:27:56.018Z,99504.13
2023-04-03T02:30:28.845Z,99508.72
2023-04-03T02:33:01.087Z,99505.48
2023-04-03T02:35:33.464Z,99508.22
2023-04-03T02:38:06.182Z,99504.73
2023-04-03T02:40:38.795Z,99504.82
2023-04-03T02:43:11.518Z,99501.38
2023-04-03T02:45:43.704Z,99500.52
2023-04-03T02:48:17.876Z,99503.14
2023-04-03T02:50:50.570Z,99499.57
2023-04-03T02:53:22.652Z,99502.86
2023-04-03T02:55:55.221Z,99504.57
2023-04-03T02:58:27.210Z,99505.31
2023-04-03T03:00:59.641Z,99500.84
2023-04-03T03:03:31.964Z,99511.25
2023-04-03T03:06:07.194Z,99511.25
2023-04-03T03:08:39.747Z,99513.87
2023-04-03T03:11:12.286Z,99521.75
2023-04-03T03:13:44.253Z,99514.63
2023-04-03T03:16:16.820Z,99518.02
2023-04-03T03:18:49.137Z,99515.20
2023-04-03T03:21:21.370Z,99512.49
2023-04-03T03:23:53.367Z,99519.42
2023-04-03T03:26:26.179Z,99517.49
2023-04-03T03:28:58.428Z,99525.94
2023-04-03T03:31:31.348Z,99524.92
2023-04-03T03:34:03.571Z,99531.69
2023-04-03T03:36:36.024Z,99530.58
2023-04-03T03:39:08.625Z,99521.50
2023-04-03T03:41:40.670Z,99519.45
2023-04-03T03:44:15.294Z,99526.05
2023-04-03T03:46:48.070Z,99523.81
2023-04-03T03:49:20.581Z,99518.19
2023-04-03T03:51:53.060Z,99521.03
2023-04-03T03:54:25.651Z,99521.51
2023-04-03T03:56:57.949Z,99513.06
2023-04-03T03:59:30.417Z,99514.39
2023-04-03T04:02:02.527Z,99513.92
2023-04-03T04:04:34.568Z,99509.98
2023-04-03T04:07:06.637Z,99513.17
2023-04-03T04:09:39.575Z,99526.05
2023-04-03T04:12:13.444Z,99507.73
2023-04-03T04:14:47.158Z,99510.19
2023-04-03T04:17:21.354Z,99517.03
2023-04-03T04:19:55.045Z,99514.05
2023-04-03T04:22:27.970Z,99520.16
2023-04-03T04:25:00.501Z,99530.59
2023-04-03T04:27:33.040Z,99527.87
2023-04-03T04:30:07.406Z,99528.60
2023-04-03T04:32:40.051Z,99520.53
2023-04-03T04:35:14.744Z,99529.25
2023-04-03T04:37:47.418Z,99535.27
2023-04-03T04:40:19.637Z,99540.14
2023-04-03T04:42:52.101Z,99538.73
2023-04-03T04:45:25.381Z,99536.47
2023-04-03T04:48:00.457Z,99544.55
2023-04-03T04:50:32.709Z,99543.00
2023-04-03T04:53:05.490Z,99533.78
2023-04-03T04:55:38.296Z,99544.66
2023-04-03T04:58:10.602Z,99546.16
2023-04-03T05:00:43.390Z,99543.30
2023-04-03T05:03:15.805Z,99548.09
2023-04-03T05:05:48.723Z,99540.45
2023-04-03T05:08:20.883Z,99546.69
2023-04-03T05:10:56.105Z,99544.30
2023-04-03T05:13:30.017Z,99540.00
2023-04-03T05:16:02.262Z,99546.27
2023-04-03T05:18:34.532Z,99542.81
2023-04-03T05:21:08.280Z,99544.52
2023-04-03T05:23:40.559Z,99544.20
2023-04-03T05:26:13.868Z,99543.05
2023-04-03T05:28:47.058Z,99536.27
2023-04-03T05:31:20.429Z,99542.06
2023-04-03T05:33:55.526Z,99542.81
2023-04-03T05:36:27.982Z,99544.59
2023-04-03T05:39:01.684Z,99541.66
2023-04-03T05:41:34.305Z,99545.77
2023-04-03T05:44:06.321Z,99541.34
2023-04-03T05:46:38.479Z,99546.28
2023-04-03T05:49:11.842Z,99545.31
2023-04-03T05:51:46.241Z,99549.53
2023-04-03T05:54:26.251Z,99545.97
2023-04-03T05:57:00.000Z,99545.72
2023-04-03T05:59:32.462Z,99547.33
2023-04-03T06:02:05.221Z,99544.45
2023-04-03T06:04:37.738Z,99554.19
2023-04-03T06:07:15.259Z,99560.19
2023-04-03T06:09:47.945Z,99561.14
2023-04-03T06:12:22.269Z,99562.00
2023-04-03T06:14:54.392Z,99565.91
2023-04-03T06:17:28.187Z,99566.22
2023-04-03T06:20:00.693Z,99577.13
2023-04-03T06:22:33.324Z,99578.39
2023-04-03T06:25:06.423Z,99575.10
2023-04-03T06:27:38.517Z,99582.92
2023-04-03T06:30:10.765Z,99577.33
2023-04-03T06:32:44.023Z,99581.34
2023-04-03T06:35:16.302Z,99585.87
2023-04-03T06:37:48.521Z,99579.93
2023-04-03T06:40:27.479Z,99584.38
2023-04-03T06:42:59.774Z,99581.78
2023-04-03T06:45:32.369Z,99573.73
2023-04-03T06:48:04.709Z,99579.20
2023-04-03T06:50:36.927Z,99580.20
2023-04-03T06:53:09.222Z,99584.80
2023-04-03T06:55:41.359Z,99578.97
2023-04-03T06:58:13.953Z,99587.56
2023-04-03T07:00:46.263Z,99577.15
2023-04-03T07:03:18.564Z,99579.70
2023-04-03T07:05:51.072Z,99586.59
2023-04-03T07:08:24.388Z,99584.84
2023-04-03T07:10:56.836Z,99591.36
2023-04-03T07:13:29.252Z,99579.73
2023-04-03T07:16:01.676Z,99582.36
2023-04-03T07:18:34.917Z,99586.23
2023-04-03T07:21:07.768Z,99574.09
2023-04-03T07:23:40.345Z,99576.71
2023-04-03T07:26:12.603Z,99574.06
2023-04-03T07:28:45.544Z,99573.56
2023-04-03T07:31:19.859Z,99576.46
2023-04-03T07:33:53.941Z,99571.20
2023-04-03T07:36:26.606Z,99583.08
2023-04-03T07:38:59.072Z,99574.22
2023-04-03T07:41:31.715Z,99575.69
2023-04-03T07:44:04.140Z,99575.52
2023-04-03T07:46:36.570Z,99577.25
2023-04-03T07:49:09.170Z,99582.49
2023-04-03T07:51:41.803Z,99579.16
2023-04-03T07:54:13.894Z,99583.49
2023-04-03T07:56:46.399Z,99579.72
2023-04-03T07:59:18.570Z,99584.52
2023-04-03T08:01:50.866Z,99582.84
2023-04-03T08:04:23.034Z,99582.12
2023-04-03T08:06:55.502Z,99579.89
2023-04-03T08:09:27.911Z,99586.50
2023-04-03T08:12:00.992Z,99574.61
2023-04-03T08:14:36.422Z,99576.88
2023-04-03T08:17:09.948Z,99576.88
2023-04-03T08:19:42.659Z,99571.30
2023-04-03T08:22:14.643Z,99571.07
2023-04-03T08:24:58.638Z,99573.06
2023-04-03T08:27:21.061Z,99580.23
2023-04-03T08:29:53.417Z,99578.72
2023-04-03T08:32:25.941Z,99579.13
2023-04-03T08:34:58.577Z,99578.42
2023-04-03T08:37:30.711Z,99580.09
2023-04-03T08:40:02.898Z,99583.06
2023-04-03T08:42:38.169Z,99589.23
2023-04-03T08:45:19.670Z,99585.99
2023-04-03T08:48:08.750Z,99593.70
2023-04-03T08:50:43.299Z,99589.92
2023-04-03T08:53:16.202Z,99590.19
2023-04-03T08:55:52.848Z,99596.00
2023-04-03T08:58:30.348Z,99593.55
2023-04-03T09:01:08.479Z,99595.64
2023-04-03T09:03:43.008Z,99593.56
2023-04-03T09:06:31.873Z,99593.83
2023-04-03T09:09:07.147Z,99599.68
2023-04-03T09:11:57.196Z,99599.27
2023-04-03T09:14:33.634Z,99596.00
2023-04-03T09:17:08.313Z,99601.31
2023-04-03T09:19:52.376Z,99601.56
2023-04-03T09:22:27.256Z,99602.03
2023-04-03T09:25:09.234Z,99599.52
2023-04-03T09:27:42.364Z,99606.33
2023-04-03T09:30:17.617Z,99610.42
2023-04-03T09:32:51.974Z,99609.80
2023-04-03T09:35:44.913Z,99614.39
2023-04-03T09:38:16.124Z,99613.69
2023-04-03T09:40:50.922Z,99612.65
2023-04-03T09:43:31.862Z,99608.27
2023-04-03T09:46:22.332Z,99608.20
2023-04-03T09:49:08.136Z,99610.41
2023-04-03T09:51:34.223Z,99604.71
2023-04-03T09:54:30.216Z,99612.48
2023-04-03T09:57:14.422Z,99617.05
2023-04-03T09:59:52.686Z,99613.15
2023-04-03T10:02:36.744Z,99615.25
2023-04-03T10:05:30.287Z,99618.67
2023-04-03T10:08:14.426Z,99614.91
2023-04-03T10:10:51.991Z,99620.84
2023-04-03T10:13:24.200Z,99612.45
2023-04-03T10:16:07.815Z,99609.39
2023-04-03T10:18:49.249Z,99613.73
2023-04-03T10:21:33.660Z,99616.94
2023-04-03T10:24:11.828Z,99619.99
2023-04-03T10:27:03.404Z,99620.24
2023-04-03T10:29:44.077Z,99624.47
2023-04-03T10:32:22.536Z,99622.19
2023-04-03T10:35:05.148Z,99622.44
2023-04-03T10:37:38.694Z,99624.81
2023-04-03T10:40:44.979Z,99629.73
2023-04-03T10:43:36.750Z,99625.39
2023-04-03T10:46:20.643Z,99630.77
2023-04-03T10:49:08.637Z,99629.13
2023-04-03T10:51:45.436Z,99628.23
2023-04-03T10:54:40.927Z,99638.77
2023-04-03T10:57:14.528Z,99636.13
2023-04-03T10:59:55.669Z,99631.50
2023-04-03T11:02:43.526Z,99628.53
2023-04-03T11:05:33.802Z,99630.91
2023-04-03T11:08:09.059Z,99632.59
2023-04-03T11:10:46.743Z,99633.44
2023-04-03T11:13:30.962Z,99622.36
2023-04-03T11:16:04.888Z,99622.04
2023-04-03T11:18:48.738Z,99624.28
2023-04-03T11:21:23.628Z,99621.90
2023-04-03T11:23:57.879Z,99621.08
2023-04-03T11:26:33.675Z,99611.95
2023-04-03T11:29:08.870Z,99609.84
2023-04-03T11:31:56.159Z,99615.61
2023-04-03T11:34:38.467Z,99616.14
2023-04-03T11:37:38.044Z,99614.90
2023-04-03T11:40:27.767Z,99621.59
2023-04-03T11:43:02.782Z,99621.70
2023-04-03T11:45:41.345Z,99612.80
2023-04-03T11:48:34.832Z,99607.56
2023-04-03T11:51:19.089Z,99610.86
2023-04-03T11:53:51.469Z,99610.95
2023-04-03T11:56:29.385Z,99610.28
2023-04-03T11:59:16.591Z,99614.16
2023-04-03T12:02:01.079Z,99614.01
2023-04-03T12:04:33.375Z,99614.72
2023-04-03T12:07:17.837Z,99608.20
2023-04-03T12:09:52.880Z,99612.05
2023-04-03T12:12:39.812Z,99611.56
2023-04-03T12:15:23.571Z,99617.47
2023-04-03T12:17:56.117Z,99621.73
2023-04-03T12:20:50.490Z,99621.62
2023-04-03T12:23:27.916Z,99610.86
2023-04-03T12:26:24.458Z,99614.00
2023-04-03T12:28:58.423Z,99615.28
2023-04-03T12:31:33.279Z,99621.34
2023-04-03T12:34:32.424Z,99624.98
2023-04-03T12:37:12.984Z,99621.16
2023-04-03T12:40:12.057Z,99623.77
2023-04-03T12:42:46.978Z,99620.31
2023-04-03T12:45:27.216Z,99620.31
2023-04-03T12:47:59.347Z,99615.69
2023-04-03T12:50:37.265Z,99611.63
2023-04-03T12:53:15.060Z,99617.74
2023-04-03T12:55:47.597Z,99620.69
2023-04-03T12:58:28.910Z,99625.33
2023-04-03T13:01:09.878Z,99627.19
2023-04-03T13:03:45.311Z,99623.59
2023-04-03T13:06:32.173Z,99633.98
2023-04-03T13:09:05.245Z,99631.84
2023-04-03T13:11:41.360Z,99632.20
2023-04-03T13:14:22.291Z,99639.33
2023-04-03T13:17:16.007Z,99636.92
2023-04-03T13:19:48.436Z,99638.13
2023-04-03T13:22:29.172Z,99630.80
2023-04-03T13:25:04.233Z,99632.59
2023-04-03T13:27:36.434Z,99647.64
2023-04-03T13:30:11.277Z,99639.57
2023-04-03T13:32:46.191Z,99637.77
2023-04-03T13:35:30.729Z,99637.77
2023-04-03T13:38:06.308Z,99638.97
2023-04-03T13:43:32.920Z,99641.37
2023-04-03T13:46:13.677Z,99627.65
2023-04-03T13:48:48.251Z,99627.65
2023-04-03T13:51:28.876Z,99640.18
2023-04-03T13:54:03.477Z,99644.63
2023-04-03T13:56:39.259Z,99640.03
2023-04-03T13:59:20.094Z,99641.00
2023-04-03T14:01:58.175Z,99641.00
2023-04-03T14:04:35.872Z,99642.83
2023-04-03T14:07:08.087Z,99644.25
2023-04-03T14:09:40.337Z,99644.59
2023-04-03T14:12:30.244Z,99644.97
2023-04-03T14:14:49.661Z,99624.80
2023-04-03T14:17:25.614Z,99624.80
2023-04-03T14:19:59.831Z,99650.30
2023-04-03T14:22:35.888Z,99646.45
2023-04-03T14:25:08.555Z,99654.73
2023-04-03T14:27:43.816Z,99655.20
2023-04-03T14:30:24.691Z,99652.25
2023-04-03T14:32:58.006Z,99648.26
2023-04-03T14:35:30.546Z,99653.38
2023-04-03T14:38:02.866Z,99655.96
2023-04-03T14:40:34.950Z,99651.95
2023-04-03T14:43:10.289Z,99655.56
2023-04-03T14:45:42.831Z,99644.03
2023-04-03T14:48:26.649Z,99653.42
2023-04-03T14:51:05.843Z,99650.67
2023-04-03T14:53:38.745Z,99651.53
2023-04-03T14:56:16.288Z,99653.31
2023-04-03T14:58:50.139Z,99655.35
2023-04-03T15:01:22.569Z,99653.67
2023-04-03T15:03:55.051Z,99655.67
2023-04-03T15:06:28.155Z,99649.78
2023-04-03T15:09:00.277Z,99649.28
2023-04-03T15:11:32.437Z,99647.92
2023-04-03T15:14:04.502Z,99647.42
2023-04-03T15:16:36.523Z,99652.20
2023-04-03T15:19:09.028Z,99647.23
2023-04-03T15:21:41.477Z,99648.30
2023-04-03T15:24:14.106Z,99654.55
2023-04-03T15:26:46.457Z,99658.23
2023-04-03T15:29:18.758Z,99654.86
2023-04-03T15:31:52.714Z,99654.01
2023-04-03T15:34:24.875Z,99654.46
2023-04-03T15:36:56.904Z,99654.67
2023-04-03T15:39:30.018Z,99652.23
2023-04-03T15:42:03.735Z,99657.87
2023-04-03T15:44:37.421Z,99655.55
2023-04-03T15:47:09.925Z,99651.42
2023-04-03T15:49:42.228Z,99654.41
2023-04-03T15:52:14.458Z,99653.05
2023-04-03T15:54:46.723Z,99658.70
2023-04-03T15:57:19.022Z,99658.94
2023-04-03T15:59:51.444Z,99663.67
2023-04-03T16:02:23.742Z,99664.83
2023-04-03T16:04:57.328Z,99665.07
2023-04-03T16:07:29.360Z,99663.59
2023-04-03T16:10:01.582Z,99664.66
2023-04-03T16:12:33.627Z,99660.40
2023-04-03T16:15:06.910Z,99662.31
2023-04-03T16:17:40.626Z,99668.75
2023-04-03T16:20:14.824Z,99674.23
2023-04-03T16:22:47.613Z,99677.11
2023-04-03T16:25:20.330Z,99672.13
2023-04-03T16:27:52.372Z,99669.69
2023-04-03T16:30:24.331Z,99670.55
2023-04-03T16:32:56.601Z,99687.34
2023-04-03T16:35:28.907Z,99680.34
2023-04-03T16:38:01.074Z,99680.45
2023-04-03T16:40:34.882Z,99684.89
2023-04-03T16:43:07.038Z,99687.44
2023-04-03T16:45:39.378Z,99689.31
2023-04-03T16:48:11.685Z,99688.49
2023-04-03T16:50:43.936Z,99699.97
2023-04-03T16:53:16.433Z,99707.06
2023-04-03T16:55:48.518Z,99708.84
2023-04-03T16:58:23.425Z,99709.17
2023-04-03T17:00:55.070Z,99710.19
2023-04-03T17:03:29.211Z,99710.42
2023-04-03T17:06:01.336Z,99711.67
2023-04-03T17:08:33.536Z,99714.50
2023-04-03T17:11:05.615Z,99718.38
2023-04-03T17:13:38.235Z,99725.66
2023-04-03T17:16:13.022Z,99718.70
2023-04-03T17:18:46.212Z,99720.68
2023-04-03T17:21:19.053Z,99718.99
2023-04-03T17:23:59.951Z,99723.63
2023-04-03T17:26:32.076Z,99728.05
2023-04-03T17:29:04.904Z,99730.78
2023-04-03T17:31:37.919Z,99723.92
2023-04-03T17:34:11.773Z,99738.80
2023-04-03T17:36:44.308Z,99735.42
2023-04-03T17:39:16.408Z,99739.02
2023-04-03T17:41:49.735Z,99729.52
2023-04-03T17:44:22.229Z,99732.53
2023-04-03T17:46:54.681Z,99735.36
2023-04-03T17:49:27.139Z,99730.17
2023-04-03T17:51:59.476Z,99733.95
2023-04-03T17:54:31.663Z,99734.17
2023-04-03T17:57:04.709Z,99731.88
2023-04-03T17:59:37.398Z,99735.88
2023-04-03T18:02:09.613Z,99734.47
2023-04-03T18:04:41.659Z,99727.02
2023-04-03T18:07:13.901Z,99730.92
2023-04-03T18:09:48.705Z,99734.69
2023-04-03T18:12:21.258Z,99727.24
2023-04-03T18:14:53.555Z,99736.19
2023-04-03T18:17:26.979Z,99726.87
2023-04-03T18:19:59.673Z,99737.50
2023-04-03T18:22:33.465Z,99729.91
2023-04-03T18:25:06.337Z,99729.13
2023-04-03T18:27:38.694Z,99725.00
2023-04-03T18:30:16.697Z,99730.47
2023-04-03T18:32:49.221Z,99729.80
2023-04-03T18:35:21.460Z,99730.83
2023-04-03T18:37:53.450Z,99720.70
2023-04-03T18:40:25.487Z,99728.77
2023-04-03T18:42:57.624Z,99728.86
2023-04-03T18:45:30.333Z,99719.27
2023-04-03T18:48:02.801Z,99721.14
2023-04-03T18:50:35.600Z,99724.80
2023-04-03T18:53:07.887Z,99729.16
2023-04-03T18:55:40.161Z,99722.38
2023-04-03T18:58:12.458Z,99725.28
2023-04-03T19:00:44.622Z,99727.44
2023-04-03T19:03:16.994Z,99726.87
2023-04-03T19:05:49.360Z,99723.64
2023-04-03T19:08:21.407Z,99730.89
2023-04-03T19:10:53.640Z,99734.46
2023-04-03T19:13:27.032Z,99732.86
2023-04-03T19:16:00.140Z,99732.27
2023-04-03T19:18:32.225Z,99733.20
2023-04-03T19:21:04.565Z,99724.66
2023-04-03T19:23:36.806Z,99732.72
2023-04-03T19:26:09.827Z,99726.81
2023-04-03T19:28:42.447Z,99726.03
2023-04-03T19:31:22.594Z,99719.18
2023-04-03T19:33:54.752Z,99723.61
2023-04-03T19:36:26.942Z,99720.20
2023-04-03T19:38:58.954Z,99721.12
2023-04-03T19:41:34.024Z,99719.60
2023-04-03T19:44:07.590Z,99719.77
2023-04-03T19:46:39.728Z,99714.69
2023-04-03T19:49:11.810Z,99716.57
2023-04-03T19:51:43.755Z,99719.53
2023-04-03T19:54:15.838Z,99726.85
2023-04-03T19:56:48.125Z,99719.50
2023-04-03T19:59:20.388Z,99720.61
2023-04-03T20:01:53.043Z,99718.34
2023-04-03T20:04:25.404Z,99716.82
2023-04-03T20:06:57.779Z,99722.24
2023-04-03T20:09:29.818Z,99718.84
2023-04-03T20:12:02.427Z,99719.61
2023-04-03T20:14:35.678Z,99717.81
2023-04-03T20:17:07.684Z,99713.33
2023-04-03T20:19:39.784Z,99712.31
2023-04-03T20:22:11.784Z,99707.14
2023-04-03T20:24:43.947Z,99712.39
2023-04-03T20:27:16.769Z,99705.37
2023-04-03T20:29:49.405Z,99700.94
2023-04-03T20:32:21.818Z,99700.86
2023-04-03T20:35:03.436Z,99700.86
2023-04-03T20:37:28.393Z,99702.58
2023-04-03T20:40:00.516Z,99698.06
2023-04-03T20:42:33.665Z,99699.95
2023-04-03T20:45:08.040Z,99699.17
2023-04-03T20:47:40.429Z,99692.23
2023-04-03T20:50:13.073Z,99696.55
2023-04-03T20:52:45.276Z,99689.52
2023-04-03T20:55:19.042Z,99691.12
2023-04-03T20:57:54.612Z,99691.78
2023-04-03T21:00:25.356Z,99688.33
2023-04-03T21:02:59.675Z,99682.13
2023-04-03T21:05:33.456Z,99680.52
2023-04-03T21:08:41.029Z,99684.84
2023-04-03T21:11:48.853Z,99677.81
2023-04-03T21:14:56.805Z,99685.70
2023-04-03T21:17:28.589Z,99678.81
2023-04-03T21:20:00.541Z,99681.55
2023-04-03T21:22:32.909Z,99682.74
2023-04-03T21:25:05.075Z,99677.66
2023-04-03T21:27:37.817Z,99683.16
2023-04-03T21:30:10.649Z,99681.64
2023-04-03T21:32:42.887Z,99683.52
2023-04-03T21:35:15.100Z,99686.31
2023-04-03T21:37:47.040Z,99690.73
2023-04-03T21:40:19.031Z,99682.74
2023-04-03T21:42:56.321Z,99688.11
2023-04-03T21:45:28.568Z,99687.33
2023-04-03T21:48:02.164Z,99684.88
2023-04-03T21:50:34.708Z,99689.38
2023-04-03T21:53:07.467Z,99683.47
2023-04-03T21:55:39.768Z,99685.31
2023-04-03T21:58:11.736Z,99676.58
2023-04-03T22:00:43.844Z,99681.16
2023-04-03T22:03:21.973Z,99674.30
2023-04-03T22:05:54.015Z,99677.95
2023-04-03T22:08:26.420Z,99676.43
2023-04-03T22:11:14.755Z,99675.65
2023-04-03T22:13:46.879Z,99679.30
2023-04-03T22:16:19.124Z,99672.44
2023-04-03T22:18:52.888Z,99676.00
2023-04-03T22:21:25.028Z,99681.34
2023-04-03T22:23:56.987Z,99676.09
2023-04-03T22:26:29.033Z,99669.23
2023-04-03T22:29:01.494Z,99668.45
2023-04-03T22:31:34.836Z,99660.77
2023-04-03T22:34:07.104Z,99661.78
2023-04-03T22:36:39.215Z,99661.01
2023-04-03T22:39:12.383Z,99652.39
2023-04-03T22:41:45.578Z,99664.81
2023-04-03T22:44:18.371Z,99653.64
2023-04-03T22:46:52.174Z,99656.34
2023-04-03T22:49:24.551Z,99649.48
2023-04-03T22:51:56.613Z,99651.45
2023-04-03T22:54:28.680Z,99654.31
2023-04-03T22:57:00.767Z,99649.41
2023-04-03T22:59:32.901Z,99647.17
2023-04-03T23:02:05.110Z,99643.17
2023-04-03T23:04:38.161Z,99650.49
2023-04-03T23:07:10.268Z,99652.67
2023-04-03T23:09:42.506Z,99651.33
2023-04-03T23:12:14.553Z,99656.05
2023-04-03T23:14:46.612Z,99643.16
2023-04-03T23:17:18.752Z,99641.63
2023-04-03T23:19:50.690Z,99643.65
2023-04-03T23:22:22.761Z,99639.34
2023-04-03T23:24:54.823Z,99639.56
2023-04-03T23:27:27.081Z,99644.13
2023-04-03T23:29:59.194Z,99639.89
2023-04-03T23:32:31.521Z,99648.84
2023-04-03T23:35:04.158Z,99638.51
2023-04-03T23:37:36.396Z,99648.28
2023-04-03T23:40:10.094Z,99641.42
2023-04-03T23:42:43.083Z,99648.45
2023-04-03T23:45:15.283Z,99633.56
2023-04-03T23:47:47.263Z,99641.27
2023-04-03T23:50:19.425Z,99640.20
2023-04-03T23:52:51.399Z,99632.19
2023-04-03T23:55:23.695Z,99639.72
2023-04-03T23:57:56.367Z,99639.41
